Time;durP1;ratioP1;P1;durP2;ratioP2;P2;SDS_P1;SDS_P2;PMS_P1;PMS_P2;Temp;Humidity;BMP_temperature;BMP_pressure;BME280_temperature;BME280_humidity;BME280_pressure;Samples;Min_cycle;Max_cycle;Signal;HPM_P1;HPM_P2
2023/08/17 00:02:59;;;;;;;15.00;9.20;;;21.60;99.90;;;;;;10424329;28;20211;-84
2023/08/17 00:08:03;;;;;;;9.60;8.80;;;21.50;99.90;;;;;;10424146;28;20231;-86
2023/08/17 00:13:05;;;;;;;10.53;9.73;;;21.60;99.90;;;;;;10428603;28;20237;-86
2023/08/17 00:18:07;;;;;;;9.67;8.67;;;21.60;99.90;;;;;;10434302;28;20761;-83
2023/08/17 00:23:11;;;;;;;11.50;10.70;;;21.60;99.90;;;;;;10434233;28;20365;-86
2023/08/17 00:28:13;;;;;;;9.80;9.10;;;21.60;99.90;;;;;;10438839;28;20214;-85
2023/08/17 00:33:15;;;;;;;10.60;9.80;;;21.60;99.90;;;;;;10433045;28;20207;-86
2023/08/17 00:38:19;;;;;;;10.53;9.47;;;21.60;99.90;;;;;;10449856;28;20268;-86
2023/08/17 00:43:21;;;;;;;11.80;10.90;;;21.70;99.90;;;;;;10433058;28;20222;-85
2023/08/17 00:48:24;;;;;;;11.20;10.20;;;21.70;99.90;;;;;;10414999;28;20230;-84
2023/08/17 00:53:30;;;;;;;11.87;10.77;;;21.80;99.90;;;;;;10419851;28;20237;-84
2023/08/17 00:58:33;;;;;;;12.10;11.17;;;21.80;99.90;;;;;;10425052;28;20234;-85
2023/08/17 01:03:35;;;;;;;11.30;10.50;;;21.90;99.90;;;;;;10424912;28;20210;-85
2023/08/17 01:08:40;;;;;;;11.37;10.47;;;21.90;99.90;;;;;;10431767;28;20737;-84
2023/08/17 01:13:49;;;;;;;10.70;9.90;;;21.90;99.90;;;;;;10428368;28;20230;-86
2023/08/17 01:18:52;;;;;;;11.50;10.40;;;21.90;99.90;;;;;;10426464;28;20239;-86
2023/08/17 01:23:59;;;;;;;10.03;9.33;;;22.00;99.90;;;;;;10431975;28;20245;-87
2023/08/17 01:29:03;;;;;;;11.93;10.90;;;22.00;99.90;;;;;;10433744;28;21033;-84
2023/08/17 01:34:10;;;;;;;12.60;11.43;;;22.10;99.90;;;;;;10416238;28;21256;-86
2023/08/17 01:39:15;;;;;;;11.00;10.03;;;22.10;99.90;;;;;;10509023;28;20218;-85
2023/08/17 01:44:17;;;;;;;10.60;9.80;;;22.20;99.90;;;;;;10453195;28;20194;-85
2023/08/17 01:49:20;;;;;;;10.27;9.47;;;22.20;99.90;;;;;;10453164;28;20269;-85
2023/08/17 01:54:24;;;;;;;9.87;9.07;;;22.30;99.90;;;;;;10465631;28;20224;-81
2023/08/17 01:59:26;;;;;;;10.50;9.70;;;22.30;99.90;;;;;;10455233;28;20222;-86
2023/08/17 02:04:30;;;;;;;11.37;10.37;;;22.30;99.90;;;;;;10464687;28;20266;-85
2023/08/17 02:09:33;;;;;;;10.43;9.73;;;22.40;99.90;;;;;;10437191;28;20257;-85
2023/08/17 02:14:35;;;;;;;10.37;9.17;;;22.40;99.90;;;;;;10432418;28;20195;-85
2023/08/17 02:19:38;;;;;;;10.10;9.30;;;22.40;99.90;;;;;;10434151;28;20282;-85
2023/08/17 02:24:41;;;;;;;9.53;8.93;;;22.40;99.90;;;;;;10432393;28;20191;-84
2023/08/17 02:29:44;;;;;;;9.10;8.37;;;22.40;99.90;;;;;;10433384;28;20219;-85
2023/08/17 02:34:46;;;;;;;9.90;9.20;;;22.40;99.90;;;;;;10447530;28;20727;-86
2023/08/17 02:39:49;;;;;;;11.20;10.20;;;22.40;99.90;;;;;;10439718;28;20241;-86
2023/08/17 02:44:51;;;;;;;10.63;9.77;;;22.40;99.90;;;;;;10442915;28;20194;-86
2023/08/17 02:49:54;;;;;;;12.00;10.93;;;22.40;99.90;;;;;;10462544;28;20214;-87
2023/08/17 02:54:57;;;;;;;12.83;11.63;;;22.40;99.90;;;;;;10468083;28;20197;-84
2023/08/17 02:59:59;;;;;;;12.03;11.03;;;22.40;99.90;;;;;;10450855;28;20263;-85
2023/08/17 03:05:01;;;;;;;12.00;10.80;;;22.50;99.90;;;;;;10463692;28;20215;-84
2023/08/17 03:10:07;;;;;;;11.90;11.00;;;22.50;99.90;;;;;;10443036;28;20286;-85
2023/08/17 03:15:10;;;;;;;12.77;11.43;;;22.50;99.90;;;;;;10464416;28;20205;-85
2023/08/17 03:20:12;;;;;;;13.17;12.07;;;22.40;99.90;;;;;;10460115;28;20552;-86
2023/08/17 03:25:16;;;;;;;11.53;10.53;;;22.40;99.90;;;;;;10444989;28;20198;-85
2023/08/17 03:30:19;;;;;;;13.20;12.00;;;22.40;99.90;;;;;;10467433;28;20221;-83
2023/08/17 03:35:21;;;;;;;12.33;11.43;;;22.30;99.90;;;;;;10485281;28;20213;-85
2023/08/17 03:40:24;;;;;;;14.20;11.93;;;22.30;99.90;;;;;;10466282;28;20209;-86
2023/08/17 03:45:26;;;;;;;13.50;12.37;;;22.20;99.90;;;;;;10471045;28;20201;-86
2023/08/17 03:50:29;;;;;;;13.73;12.63;;;22.20;99.90;;;;;;10469465;28;20280;-84
2023/08/17 03:55:32;;;;;;;12.07;11.07;;;22.20;99.90;;;;;;10451418;28;20213;-87
2023/08/17 04:00:34;;;;;;;11.57;10.67;;;22.20;99.90;;;;;;10460401;28;20229;-86
2023/08/17 04:05:37;;;;;;;13.27;12.10;;;22.10;99.90;;;;;;10462962;28;20232;-87
2023/08/17 04:10:40;;;;;;;14.07;12.87;;;22.10;99.90;;;;;;10452990;28;20268;-86
2023/08/17 04:15:43;;;;;;;15.20;13.90;;;22.10;99.90;;;;;;10459541;28;20229;-86
2023/08/17 04:20:45;;;;;;;14.50;13.10;;;22.10;99.90;;;;;;10474739;28;20258;-87
2023/08/17 04:25:51;;;;;;;12.43;11.23;;;22.10;99.90;;;;;;10493135;28;20258;-86
2023/08/17 04:30:54;;;;;;;15.70;14.30;;;22.10;99.90;;;;;;10479976;28;20214;-86
2023/08/17 04:35:56;;;;;;;16.03;14.33;;;22.10;99.90;;;;;;10464099;28;20191;-87
2023/08/17 04:41:00;;;;;;;15.57;14.00;;;22.20;99.90;;;;;;10442963;28;20215;-86
2023/08/17 04:46:02;;;;;;;15.97;14.57;;;22.20;99.90;;;;;;10442947;28;20281;-85
2023/08/17 04:51:05;;;;;;;13.60;12.43;;;22.20;99.90;;;;;;10450638;28;20233;-86
2023/08/17 04:56:09;;;;;;;17.83;16.33;;;22.30;99.90;;;;;;10451502;28;20198;-84
2023/08/17 05:01:11;;;;;;;16.50;14.90;;;22.30;99.90;;;;;;10467221;28;20209;-87
2023/08/17 05:06:14;;;;;;;19.83;17.77;;;22.30;99.90;;;;;;10447577;28;20203;-87
2023/08/17 05:11:17;;;;;;;17.40;16.00;;;22.40;99.90;;;;;;10428663;28;20230;-87
2023/08/17 05:16:20;;;;;;;17.63;16.00;;;22.40;99.90;;;;;;10428242;28;20378;-87
2023/08/17 05:21:22;;;;;;;16.13;14.73;;;22.40;99.90;;;;;;10441888;28;20214;-89
2023/08/17 05:26:26;;;;;;;15.97;14.57;;;22.40;99.90;;;;;;10450767;28;20653;-86
2023/08/17 05:31:29;;;;;;;15.97;14.47;;;22.50;99.90;;;;;;10475279;28;20223;-88
2023/08/17 05:36:32;;;;;;;17.60;16.00;;;22.50;99.90;;;;;;10454960;28;20199;-87
2023/08/17 05:41:35;;;;;;;18.07;16.33;;;22.60;99.90;;;;;;10441141;28;20226;-86
2023/08/17 05:46:37;;;;;;;15.80;14.30;;;22.70;99.90;;;;;;10450312;28;20199;-87
2023/08/17 05:51:40;;;;;;;16.00;14.57;;;22.70;99.90;;;;;;10431004;28;20318;-86
2023/08/17 05:56:46;;;;;;;16.60;15.00;;;22.80;99.90;;;;;;10452478;28;20191;-91
2023/08/17 06:01:48;;;;;;;16.87;15.47;;;22.90;99.90;;;;;;10453811;28;20245;-86
2023/08/17 06:06:51;;;;;;;16.83;15.23;;;23.00;99.90;;;;;;10434696;28;20638;-88
2023/08/17 06:11:54;;;;;;;15.50;14.00;;;23.10;99.90;;;;;;10458409;28;20344;-87
2023/08/17 06:16:56;;;;;;;15.80;14.40;;;23.10;99.90;;;;;;10443875;28;20201;-87
2023/08/17 06:21:58;;;;;;;16.27;14.60;;;23.10;99.90;;;;;;10464070;28;20701;-87
2023/08/17 06:27:02;;;;;;;15.40;13.90;;;23.20;99.90;;;;;;10463687;28;20210;-88
2023/08/17 06:32:04;;;;;;;16.47;15.00;;;23.30;99.90;;;;;;10434416;28;20273;-88
2023/08/17 06:37:07;;;;;;;14.50;13.13;;;23.40;99.90;;;;;;10447365;28;20214;-86
2023/08/17 06:42:10;;;;;;;21.57;15.97;;;23.50;99.90;;;;;;10461802;28;20220;-86
2023/08/17 06:47:12;;;;;;;17.37;15.67;;;23.60;99.90;;;;;;10416626;28;20203;-87
2023/08/17 06:52:14;;;;;;;14.40;13.10;;;23.70;99.90;;;;;;10425606;28;20315;-86
2023/08/17 06:57:18;;;;;;;14.53;13.03;;;23.70;99.90;;;;;;10406849;28;20193;-88
2023/08/17 07:02:21;;;;;;;13.40;12.23;;;23.70;99.90;;;;;;10445081;28;20237;-88
2023/08/17 07:07:23;;;;;;;14.27;13.07;;;23.80;99.90;;;;;;10430191;28;20206;-86
2023/08/17 07:12:28;;;;;;;12.87;11.73;;;24.00;99.90;;;;;;10445306;28;20226;-86
2023/08/17 07:17:30;;;;;;;14.67;13.37;;;24.20;99.90;;;;;;10460855;28;20241;-86
2023/08/17 07:22:32;;;;;;;13.87;12.67;;;24.30;99.90;;;;;;10434131;28;20194;-86
2023/08/17 07:27:35;;;;;;;13.13;11.90;;;24.30;99.90;;;;;;10463192;28;20222;-86
2023/08/17 07:32:38;;;;;;;12.67;11.30;;;24.40;99.90;;;;;;10433961;28;20218;-86
2023/08/17 07:37:40;;;;;;;10.70;9.60;;;24.40;99.90;;;;;;10461779;28;20603;-86
2023/08/17 07:42:43;;;;;;;12.00;10.90;;;24.60;99.90;;;;;;10427586;28;20666;-88
2023/08/17 07:47:45;;;;;;;11.40;10.40;;;24.80;99.90;;;;;;10444746;28;20226;-87
2023/08/17 07:52:48;;;;;;;9.10;8.30;;;25.00;99.90;;;;;;10434117;28;20221;-88
2023/08/17 07:57:51;;;;;;;10.30;9.40;;;25.10;99.90;;;;;;10449884;28;20621;-86
2023/08/17 08:02:53;;;;;;;10.00;9.20;;;25.20;99.90;;;;;;10467276;28;20201;-87
2023/08/17 08:07:55;;;;;;;11.90;10.70;;;25.30;99.90;;;;;;10432100;28;20258;-87
2023/08/17 08:12:59;;;;;;;10.63;9.73;;;25.50;99.90;;;;;;10438360;28;20320;-88
2023/08/17 08:18:01;;;;;;;10.90;8.57;;;25.50;99.90;;;;;;10465966;28;20215;-86
2023/08/17 08:23:04;;;;;;;8.47;7.63;;;25.60;99.90;;;;;;10440784;28;20191;-86
2023/08/17 08:28:08;;;;;;;10.60;9.60;;;25.60;99.90;;;;;;10477965;28;20229;-87
2023/08/17 08:33:10;;;;;;;12.07;11.03;;;25.80;99.90;;;;;;10473675;28;20248;-87
2023/08/17 08:38:12;;;;;;;11.50;10.40;;;26.00;99.90;;;;;;10458063;28;20254;-88
2023/08/17 08:43:16;;;;;;;10.00;9.00;;;26.20;99.90;;;;;;10475953;28;20277;-89
2023/08/17 08:48:20;;;;;;;14.00;9.77;;;26.40;99.90;;;;;;10453094;28;20226;-87
2023/08/17 08:53:40;;;;;;;10.07;9.17;;;26.40;99.90;;;;;;10472811;28;20226;-86
2023/08/17 08:58:43;;;;;;;11.50;10.40;;;26.50;99.90;;;;;;10467781;28;20242;-86
2023/08/17 09:03:48;;;;;;;11.20;10.07;;;26.50;99.90;;;;;;10439415;28;20589;-88
2023/08/17 09:08:53;;;;;;;10.17;8.70;;;26.50;99.90;;;;;;10458750;28;20218;-87
2023/08/17 09:13:56;;;;;;;8.83;8.00;;;26.40;99.90;;;;;;10471901;28;20230;-86
2023/08/17 09:18:59;;;;;;;12.70;11.40;;;26.40;99.90;;;;;;10463465;28;20252;-86
2023/08/17 09:24:01;;;;;;;9.30;8.60;;;26.50;99.90;;;;;;10469101;28;20261;-86
2023/08/17 09:29:17;;;;;;;10.53;9.63;;;26.50;99.90;;;;;;10431309;28;20207;-87
2023/08/17 09:34:20;;;;;;;10.43;9.20;;;26.70;99.90;;;;;;10437233;28;20273;-87
2023/08/17 09:39:23;;;;;;;10.87;9.73;;;26.90;99.90;;;;;;10434264;28;20233;-85
2023/08/17 09:44:27;;;;;;;9.30;8.50;;;27.10;99.90;;;;;;10417920;28;20657;-89
2023/08/17 09:49:32;;;;;;;10.97;9.87;;;27.40;99.90;;;;;;10442582;28;20229;-86
2023/08/17 09:54:35;;;;;;;11.20;10.20;;;27.60;99.90;;;;;;10434629;28;20217;-86
2023/08/17 09:59:38;;;;;;;12.97;11.70;;;27.80;99.90;;;;;;10433906;28;20328;-85
2023/08/17 10:04:41;;;;;;;12.20;10.53;;;27.90;99.90;;;;;;10455886;28;20201;-91
2023/08/17 10:09:45;;;;;;;13.23;12.10;;;28.10;99.90;;;;;;10435988;28;20269;-87
2023/08/17 10:14:54;;;;;;;12.13;11.00;;;28.40;99.90;;;;;;10467912;28;20197;-90
2023/08/17 10:19:59;;;;;;;10.90;9.90;;;28.50;99.90;;;;;;10443083;28;20270;-88
2023/08/17 10:25:02;;;;;;;10.63;9.57;;;28.50;99.90;;;;;;10430032;28;20256;-86
2023/08/17 10:30:07;;;;;;;10.60;9.57;;;28.50;99.90;;;;;;10462952;28;20211;-88
2023/08/17 10:35:09;;;;;;;10.90;10.00;;;28.30;99.90;;;;;;10426464;28;20201;-88
2023/08/17 10:40:13;;;;;;;10.33;9.20;;;28.10;99.90;;;;;;10433228;28;20258;-90
2023/08/17 10:45:29;;;;;;;9.93;8.93;;;27.90;99.90;;;;;;10466994;28;20221;-87
2023/08/17 10:50:32;;;;;;;11.93;10.93;;;27.70;99.90;;;;;;10472352;28;20666;-86
2023/08/17 10:55:39;;;;;;;10.73;9.90;;;27.60;99.90;;;;;;10429510;28;20274;-86
2023/08/17 11:00:44;;;;;;;10.57;9.50;;;27.50;99.90;;;;;;10441000;28;20218;-89
2023/08/17 11:05:49;;;;;;;11.13;9.87;;;27.50;99.90;;;;;;10448207;28;20193;-87
2023/08/17 11:11:06;;;;;;;16.37;11.93;;;27.60;99.90;;;;;;10431680;28;20218;-88
2023/08/17 11:16:11;;;;;;;10.93;9.77;;;27.60;99.90;;;;;;10432722;28;20182;-87
2023/08/17 11:21:14;;;;;;;10.70;9.80;;;27.60;99.90;;;;;;10460999;28;20824;-86
2023/08/17 11:26:17;;;;;;;9.77;8.93;;;27.60;99.90;;;;;;10431108;28;20201;-86
2023/08/17 11:31:20;;;;;;;10.60;9.70;;;27.50;99.90;;;;;;10445675;28;20218;-86
2023/08/17 11:36:24;;;;;;;11.00;10.10;;;27.50;99.90;;;;;;10441687;28;20206;-86
2023/08/17 11:41:26;;;;;;;10.70;9.90;;;27.50;99.90;;;;;;10465251;28;20218;-89
2023/08/17 11:46:30;;;;;;;9.70;9.00;;;27.50;99.90;;;;;;10470316;28;20289;-89
2023/08/17 11:51:32;;;;;;;11.83;10.40;;;27.50;99.90;;;;;;10465441;28;20682;-86
2023/08/17 11:56:35;;;;;;;10.13;9.27;;;27.60;99.90;;;;;;10462621;28;20208;-87
2023/08/17 12:01:38;;;;;;;10.53;9.73;;;27.60;99.90;;;;;;10436468;28;20212;-87
2023/08/17 12:06:45;;;;;;;10.87;9.97;;;27.70;99.90;;;;;;10453820;28;20561;-86
2023/08/17 12:11:47;;;;;;;9.87;9.07;;;27.70;99.90;;;;;;10441738;28;20214;-86
2023/08/17 12:16:50;;;;;;;10.27;9.37;;;27.70;99.90;;;;;;10437344;28;20209;-86
2023/08/17 12:21:53;;;;;;;8.67;7.97;;;27.80;99.90;;;;;;10486012;28;20226;-89
2023/08/17 12:26:58;;;;;;;9.07;8.40;;;27.90;99.90;;;;;;10418029;28;20195;-86
2023/08/17 12:32:02;;;;;;;9.57;8.87;;;28.00;99.90;;;;;;10473082;28;20229;-87
2023/08/17 12:37:05;;;;;;;9.80;9.03;;;27.90;99.90;;;;;;10436487;28;20210;-87
2023/08/17 12:42:07;;;;;;;11.20;10.30;;;27.90;99.90;;;;;;10461212;28;20214;-87
2023/08/17 12:47:11;;;;;;;10.80;9.90;;;27.90;99.90;;;;;;10459725;28;20281;-86
2023/08/17 12:52:13;;;;;;;11.37;10.20;;;27.90;99.90;;;;;;10467099;28;20217;-90
2023/08/17 12:57:15;;;;;;;14.30;10.13;;;27.90;99.90;;;;;;10460156;28;20209;-90
2023/08/17 13:02:19;;;;;;;10.70;9.70;;;27.80;99.90;;;;;;10498099;28;20245;-90
2023/08/17 13:07:21;;;;;;;9.70;8.83;;;27.70;99.90;;;;;;10463524;28;20194;-91
2023/08/17 13:12:23;;;;;;;9.20;8.50;;;27.60;99.90;;;;;;10425193;28;20227;-90
2023/08/17 13:17:26;;;;;;;9.73;8.67;;;27.50;99.90;;;;;;10442822;28;20586;-86
2023/08/17 13:22:29;;;;;;;9.20;8.30;;;27.30;99.90;;;;;;10475008;28;20226;-87
2023/08/17 13:27:31;;;;;;;9.20;8.50;;;27.10;99.90;;;;;;10436739;28;20206;-86
2023/08/17 13:32:34;;;;;;;8.73;8.00;;;26.90;99.90;;;;;;10471248;28;20221;-88
2023/08/17 13:37:38;;;;;;;10.90;9.07;;;26.80;99.90;;;;;;10442100;28;20222;-87
2023/08/17 13:42:40;;;;;;;9.20;8.50;;;26.60;99.90;;;;;;10470776;28;20252;-88
2023/08/17 13:47:43;;;;;;;10.47;9.57;;;26.40;99.90;;;;;;10454542;28;20233;-89
2023/08/17 13:52:46;;;;;;;10.20;9.20;;;26.30;99.90;;;;;;10434700;28;20282;-89
2023/08/17 13:57:48;;;;;;;9.97;8.90;;;26.10;99.90;;;;;;10474889;28;20244;-87
2023/08/17 14:02:52;;;;;;;10.57;9.70;;;26.00;99.90;;;;;;10439826;28;20222;-87
2023/08/17 14:07:54;;;;;;;9.53;8.80;;;26.00;99.90;;;;;;10477066;28;20218;-87
2023/08/17 14:12:59;;;;;;;9.80;9.10;;;25.80;99.90;;;;;;10482673;28;20220;-88
2023/08/17 14:18:03;;;;;;;11.10;9.40;;;25.70;99.90;;;;;;10443266;28;20210;-87
2023/08/17 14:23:05;;;;;;;9.97;9.07;;;25.70;99.90;;;;;;10477459;28;20529;-84
2023/08/17 14:28:08;;;;;;;9.57;8.77;;;25.60;99.90;;;;;;10415971;28;20248;-90
2023/08/17 14:33:12;;;;;;;8.70;7.97;;;25.60;99.90;;;;;;10428283;28;20226;-85
2023/08/17 14:38:14;;;;;;;9.20;8.40;;;25.60;99.90;;;;;;10480057;28;20271;-86
2023/08/17 14:43:17;;;;;;;9.47;8.77;;;25.60;99.90;;;;;;10428392;28;20199;-85
2023/08/17 14:48:20;;;;;;;9.73;9.00;;;25.60;99.90;;;;;;10459229;28;20760;-85
2023/08/17 14:53:22;;;;;;;9.50;8.70;;;25.60;99.90;;;;;;10417813;28;20218;-88
2023/08/17 14:58:25;;;;;;;9.13;8.40;;;25.70;99.90;;;;;;10467035;28;20237;-87
2023/08/17 15:03:28;;;;;;;9.67;8.90;;;25.70;99.90;;;;;;10462907;28;20612;-86
2023/08/17 15:08:30;;;;;;;10.93;9.47;;;25.70;99.90;;;;;;10444265;28;20221;-89
2023/08/17 15:13:33;;;;;;;9.53;8.77;;;25.80;99.90;;;;;;10464600;28;20233;-85
2023/08/17 15:18:36;;;;;;;10.07;9.23;;;25.80;99.90;;;;;;10440996;28;20252;-86
2023/08/17 15:23:38;;;;;;;10.00;9.20;;;25.90;99.90;;;;;;10461696;28;20194;-86
2023/08/17 15:28:42;;;;;;;10.43;9.57;;;25.90;99.90;;;;;;10442220;28;20225;-86
2023/08/17 15:33:45;;;;;;;9.60;8.80;;;25.90;99.90;;;;;;10456138;28;20221;-87
2023/08/17 15:38:48;;;;;;;9.37;8.57;;;25.90;99.90;;;;;;10441063;28;20233;-86
2023/08/17 15:43:50;;;;;;;10.20;9.40;;;26.00;99.90;;;;;;10431065;28;20195;-89
2023/08/17 15:48:53;;;;;;;8.67;8.03;;;26.00;99.90;;;;;;10434911;28;20237;-86
2023/08/17 15:53:56;;;;;;;9.57;8.53;;;26.00;99.90;;;;;;10482615;28;20221;-86
2023/08/17 15:58:58;;;;;;;9.60;8.90;;;26.00;99.90;;;;;;10449611;28;20214;-91
2023/08/17 16:04:01;;;;;;;9.90;9.10;;;26.00;99.90;;;;;;10451934;28;20205;-86
2023/08/17 16:09:03;;;;;;;8.40;7.70;;;26.00;99.90;;;;;;10436066;28;20222;-88
2023/08/17 16:14:06;;;;;;;9.83;8.97;;;26.00;99.90;;;;;;10451669;28;20230;-87
2023/08/17 16:19:10;;;;;;;11.33;9.40;;;26.00;99.90;;;;;;10439976;28;20230;-87
2023/08/17 16:24:12;;;;;;;9.07;8.37;;;26.00;99.90;;;;;;10459372;28;20220;-90
2023/08/17 16:29:14;;;;;;;9.07;8.27;;;26.00;99.90;;;;;;10458219;28;20211;-87
2023/08/17 16:34:18;;;;;;;10.57;8.20;;;26.00;99.90;;;;;;10443384;28;20226;-93
2023/08/17 16:39:20;;;;;;;8.23;7.53;;;26.00;99.90;;;;;;10457520;28;20748;-86
2023/08/17 16:44:22;;;;;;;9.40;8.63;;;26.00;99.90;;;;;;10439739;28;20194;-86
2023/08/17 16:49:25;;;;;;;9.87;9.03;;;26.00;99.90;;;;;;10499535;22;20236;-80
2023/08/17 16:54:28;;;;;;;9.50;8.80;;;26.00;99.90;;;;;;10453178;28;20264;-80
2023/08/17 16:59:30;;;;;;;9.63;8.87;;;25.90;99.90;;;;;;10487017;28;20571;-80
2023/08/17 17:04:33;;;;;;;9.43;8.73;;;25.90;99.90;;;;;;10470981;28;20209;-80
2023/08/17 17:09:35;;;;;;;10.97;10.07;;;25.90;99.90;;;;;;10489260;28;20570;-80
2023/08/17 17:14:39;;;;;;;9.00;8.30;;;25.90;99.90;;;;;;10496881;28;20223;-80
2023/08/17 17:19:42;;;;;;;9.40;8.60;;;25.90;99.90;;;;;;10473447;28;20253;-81
2023/08/17 17:24:44;;;;;;;11.23;10.13;;;25.90;99.90;;;;;;10488300;28;20198;-80
2023/08/17 17:29:48;;;;;;;10.20;9.40;;;25.90;99.90;;;;;;10483413;28;20228;-80
2023/08/17 17:34:51;;;;;;;9.97;8.90;;;25.90;99.90;;;;;;10475243;28;20214;-80
2023/08/17 17:39:53;;;;;;;9.30;8.60;;;25.90;99.90;;;;;;10489008;28;20225;-81
2023/08/17 17:44:55;;;;;;;9.87;9.00;;;25.80;99.90;;;;;;10493434;28;20202;-80
2023/08/17 17:49:59;;;;;;;9.37;8.67;;;25.80;99.90;;;;;;10482799;28;20298;-81
2023/08/17 17:55:02;;;;;;;10.97;10.17;;;25.70;99.90;;;;;;10499648;28;20217;-80
2023/08/17 18:00:05;;;;;;;10.27;9.40;;;25.60;99.90;;;;;;10476641;28;20214;-81
2023/08/17 18:05:15;;;;;;;10.50;9.60;;;25.60;99.90;;;;;;10477203;28;20201;-82
2023/08/17 18:10:17;;;;;;;11.00;10.17;;;25.50;99.90;;;;;;10498730;28;20264;-80
2023/08/17 18:15:20;;;;;;;11.30;10.40;;;25.40;99.90;;;;;;10481608;28;20209;-80
2023/08/17 18:20:23;;;;;;;10.63;9.77;;;25.30;99.90;;;;;;10496890;28;20220;-79
2023/08/17 18:25:26;;;;;;;10.63;9.83;;;25.20;99.90;;;;;;10476285;28;20615;-80
2023/08/17 18:30:29;;;;;;;11.30;10.40;;;25.20;99.90;;;;;;10482990;28;20221;-81
2023/08/17 18:35:32;;;;;;;12.60;11.43;;;25.10;99.90;;;;;;10480366;28;20303;-80
2023/08/17 18:40:34;;;;;;;11.23;10.33;;;25.00;99.90;;;;;;10473723;28;20213;-80
2023/08/17 18:45:36;;;;;;;11.17;10.30;;;24.90;99.90;;;;;;10471829;28;20193;-81
2023/08/17 18:50:40;;;;;;;10.60;9.80;;;24.90;99.90;;;;;;10495458;28;20225;-79
2023/08/17 18:55:42;;;;;;;10.30;9.50;;;24.80;99.90;;;;;;10462168;28;20218;-81
2023/08/17 19:00:45;;;;;;;10.33;9.63;;;24.70;99.90;;;;;;10500466;28;20221;-80
2023/08/17 19:05:49;;;;;;;12.03;10.93;;;24.70;99.90;;;;;;10484187;28;20213;-80
2023/08/17 19:10:51;;;;;;;11.33;10.43;;;24.60;99.90;;;;;;10470933;28;20225;-81
2023/08/17 19:15:53;;;;;;;12.30;11.37;;;24.60;99.90;;;;;;10460535;28;20218;-79
2023/08/17 19:20:57;;;;;;;11.90;10.80;;;24.50;99.90;;;;;;10492898;28;20277;-81
2023/08/17 19:25:59;;;;;;;10.67;9.87;;;24.50;99.90;;;;;;10483192;28;20205;-80
2023/08/17 19:31:01;;;;;;;11.90;11.10;;;24.40;99.90;;;;;;10467365;28;20228;-80
2023/08/17 19:36:05;;;;;;;12.00;10.90;;;24.40;99.90;;;;;;10476661;28;20695;-80
2023/08/17 19:41:07;;;;;;;12.13;11.23;;;24.40;99.90;;;;;;10471569;28;20216;-80
2023/08/17 19:46:09;;;;;;;12.73;11.73;;;24.40;99.90;;;;;;10460697;28;20564;-81
2023/08/17 19:51:13;;;;;;;12.40;11.30;;;24.30;99.90;;;;;;10479668;28;20730;-81
2023/08/17 19:56:15;;;;;;;12.40;11.40;;;24.30;99.90;;;;;;10480383;28;20241;-80
2023/08/17 20:01:17;;;;;;;11.87;10.70;;;24.20;99.90;;;;;;10475652;28;20218;-80
2023/08/17 20:06:21;;;;;;;14.20;11.70;;;24.20;99.90;;;;;;10471856;28;20221;-81
2023/08/17 20:11:23;;;;;;;12.73;11.67;;;24.20;99.90;;;;;;10477008;28;20281;-80
2023/08/17 20:16:25;;;;;;;13.10;12.10;;;24.20;99.90;;;;;;10469758;28;20220;-80
2023/08/17 20:21:29;;;;;;;13.13;12.13;;;24.20;99.90;;;;;;10493047;28;20224;-80
2023/08/17 20:26:31;;;;;;;12.57;11.47;;;24.20;99.90;;;;;;10479861;28;20189;-80
2023/08/17 20:31:33;;;;;;;13.00;11.70;;;24.20;99.90;;;;;;10492380;28;20221;-80
2023/08/17 20:36:36;;;;;;;11.67;10.87;;;24.10;99.90;;;;;;10479555;28;20228;-80
2023/08/17 20:41:39;;;;;;;13.13;12.07;;;24.20;99.90;;;;;;10473989;28;20758;-80
2023/08/17 20:46:41;;;;;;;11.30;10.37;;;24.10;99.90;;;;;;10473775;28;20595;-80
2023/08/17 20:51:45;;;;;;;11.50;10.60;;;24.00;99.90;;;;;;10493155;28;20239;-80
2023/08/17 20:56:47;;;;;;;12.63;11.73;;;24.00;99.90;;;;;;10480552;28;20686;-80
2023/08/17 21:01:49;;;;;;;12.43;11.23;;;24.00;99.90;;;;;;10474878;28;20611;-80
2023/08/17 21:06:53;;;;;;;12.20;11.17;;;23.90;99.90;;;;;;10491011;28;20232;-82
2023/08/17 21:11:55;;;;;;;11.77;10.53;;;23.90;99.90;;;;;;10474810;28;20587;-79
2023/08/17 21:16:57;;;;;;;12.73;11.53;;;23.80;99.90;;;;;;10483292;28;20251;-80
2023/08/17 21:22:01;;;;;;;11.00;10.20;;;23.80;99.90;;;;;;10485501;28;20213;-79
2023/08/17 21:27:03;;;;;;;11.30;10.43;;;23.70;99.90;;;;;;10468172;28;20202;-80
2023/08/17 21:32:05;;;;;;;10.67;9.80;;;23.70;99.90;;;;;;10493077;28;20312;-80
2023/08/17 21:37:09;;;;;;;10.37;9.57;;;23.60;99.90;;;;;;10481659;28;20302;-80
2023/08/17 21:42:11;;;;;;;10.20;9.40;;;23.60;99.90;;;;;;10468707;28;20217;-80
2023/08/17 21:47:13;;;;;;;10.03;9.33;;;23.60;99.90;;;;;;10489770;28;20649;-80
2023/08/17 21:52:17;;;;;;;10.70;9.73;;;23.50;99.90;;;;;;10486077;28;20739;-80
2023/08/17 21:57:20;;;;;;;9.60;8.90;;;23.50;99.90;;;;;;10499976;28;20209;-81
2023/08/17 22:02:22;;;;;;;9.40;8.70;;;23.40;99.90;;;;;;10478063;28;20219;-80
2023/08/17 22:07:25;;;;;;;9.90;9.00;;;23.40;99.90;;;;;;10471819;28;20269;-80
2023/08/17 22:12:27;;;;;;;9.83;8.47;;;23.30;99.90;;;;;;10481018;28;20232;-80
2023/08/17 22:17:30;;;;;;;9.20;8.60;;;23.30;99.90;;;;;;10469860;28;20649;-80
2023/08/17 22:22:33;;;;;;;9.37;8.67;;;23.30;99.90;;;;;;10491493;28;20590;-79
2023/08/17 22:27:35;;;;;;;9.57;8.20;;;23.30;99.90;;;;;;10489930;28;20224;-80
2023/08/17 22:32:37;;;;;;;7.70;7.10;;;23.20;99.90;;;;;;10491271;28;20218;-81
2023/08/17 22:37:41;;;;;;;8.33;7.73;;;23.10;99.90;;;;;;10500878;28;20206;-80
2023/08/17 22:42:43;;;;;;;8.70;8.07;;;23.10;99.90;;;;;;10487382;28;20205;-80
2023/08/17 22:47:45;;;;;;;8.60;7.80;;;23.00;99.90;;;;;;10474151;28;20231;-81
2023/08/17 22:52:49;;;;;;;11.20;7.53;;;23.00;99.90;;;;;;10493801;22;20282;-86
2023/08/17 22:57:51;;;;;;;7.40;6.80;;;23.00;99.90;;;;;;10454812;28;20288;-86
2023/08/17 23:02:53;;;;;;;8.23;7.27;;;22.90;99.90;;;;;;10483505;28;20275;-85
2023/08/17 23:07:57;;;;;;;7.40;6.80;;;22.90;99.90;;;;;;10502223;28;20193;-88
2023/08/17 23:12:59;;;;;;;6.97;6.37;;;22.80;99.90;;;;;;10473742;28;20549;-85
2023/08/17 23:18:01;;;;;;;6.50;5.90;;;22.80;99.90;;;;;;10492809;28;20204;-86
2023/08/17 23:23:05;;;;;;;6.97;6.37;;;22.80;99.90;;;;;;10467526;28;20217;-85
2023/08/17 23:28:07;;;;;;;6.70;6.30;;;22.80;99.90;;;;;;10483622;28;20231;-85
2023/08/17 23:33:09;;;;;;;7.20;6.30;;;22.70;99.90;;;;;;10494468;28;20235;-86
2023/08/17 23:38:13;;;;;;;6.97;6.40;;;22.70;99.90;;;;;;10476645;28;20196;-86
2023/08/17 23:43:15;;;;;;;6.70;6.20;;;22.60;99.90;;;;;;10485659;28;20200;-85
2023/08/17 23:48:17;;;;;;;7.20;6.20;;;22.60;99.90;;;;;;10482722;28;20775;-85
2023/08/17 23:53:21;;;;;;;6.20;5.70;;;22.50;99.90;;;;;;10488632;28;20213;-84
2023/08/17 23:58:23;;;;;;;6.60;6.07;;;22.50;99.90;;;;;;10484031;28;20201;-86
